Weather at Flynn Airport [CLOSED]

Public forecast

Using degrees Fahrenheit for public forecast. Weather courtesy of forecast.io.

Closest aviation weather report (METAR) to Flynn Airport

Closest report is Buffalo Municipal Airport, 9.9 nm (18.4 km) SSW.

2024/07/25 09:15 (retrieved 25 minutes ago)

KCFE 250915Z AUTO 00000KT 9SM FEW035 OVC060 14/14 A3022 RMK AO2

Closest aviation forecast (TAF) to Flynn Airport

Closest forecast is Saint Cloud Regional Airport, 18.2 nm (33.7 km) NW.

2024/07/25 06:22 (retrieved 3 hours ago)

TAF KSTC 250520Z 2506/2606 11003KT P6SM FEW200 FM251400 15008KT P6SM SKC FM260000 14005KT P6SM SKC